EW9994 Pistoia PT current weather conditions

sailwx.info

Wind from 215 at 11 knots gusting 22

Air temperature 20.6° C
Dewpoint 12.5° C

Last reported at 2020-Sep-25 13:09 UTC.
Time now 2020-Sep-25 14:11 UTC

Location: N 43°58' E 010°57'.
View on Google Maps.

See reports from other nearby stations

  
Tides and Currents Weather Stations Pressure Air Temp Water Temp Dewpoint Dewpoint Depression Visibility Wind Speed Wind Dir Waves Ship Positions
date/time (UTC)wind fromknots sea level pressurealtimeterstation pressurevisibilityair tempwater tempwave heightnotes
2020-Sep-25 13:09 215 11 gusting 22 20.6
2020-Sep-25 13:04 209 7 gusting 18 21.1
2020-Sep-25 12:44 206 13 gusting 18 21.1
2020-Sep-25 12:39 197 8 gusting 17 20.6
2020-Sep-25 12:34 186 11 gusting 18 20.6
2020-Sep-25 12:09 178 7 gusting 10 20.0
2020-Sep-25 12:04 200 6 gusting 12 20.0
2020-Sep-25 11:44 218 7 gusting 15 20.0
2020-Sep-25 11:34 216 6 gusting 18 20.0
2020-Sep-25 11:19 221 10 gusting 26 20.6
2020-Sep-25 11:14 187 11 gusting 24 20.6
2020-Sep-25 11:09 216 8 gusting 18 21.1
2020-Sep-25 11:04 231 8 gusting 17 21.1
2020-Sep-25 10:49 243 8 gusting 15 21.1
2020-Sep-25 10:44 241 10 gusting 18 21.1
2020-Sep-25 10:39 200 8 gusting 17 21.7
2020-Sep-25 10:34 205 11 gusting 22 21.7
2020-Sep-25 10:19 224 10 gusting 17 22.2
2020-Sep-25 10:14 233 6 gusting 15 22.2
2020-Sep-25 10:09 229 10 gusting 17 22.2
2020-Sep-25 10:04 221 10 gusting 19 22.2
2020-Sep-25 09:49 231 6 gusting 13 22.2
2020-Sep-25 09:39 226 7 gusting 20 21.1
2020-Sep-25 09:34 219 12 gusting 19 21.7
2020-Sep-25 09:09 215 5 gusting 8 20.6
2020-Sep-25 08:44 245 21.1
2020-Sep-25 08:34 233 20.6
2020-Sep-25 08:19 146 1 gusting 2 20.0
2020-Sep-25 08:09 106 1 gusting 2 20.0
2020-Sep-25 08:04 127 1 gusting 2 20.0
2020-Sep-25 07:49 215 19.4
2020-Sep-25 07:44 215 19.4
2020-Sep-25 07:39 215 0 gusting 1 19.4
2020-Sep-25 07:34 215 0 gusting 5 19.4
2020-Sep-25 07:09 297 0 gusting 2 18.9
2020-Sep-25 07:04 025 1 gusting 4 18.3
2020-Sep-25 06:49 218 1 gusting 2 18.3
2020-Sep-25 06:44 218 18.3
2020-Sep-25 06:39 218 18.3
2020-Sep-25 06:19 262 0 gusting 2 18.3
2020-Sep-25 06:14 099 2 gusting 6 18.3
2020-Sep-25 06:09 098 3 gusting 5 18.3
2020-Sep-25 05:49 139 5 gusting 8 18.3
2020-Sep-25 05:44 221 3 gusting 10 18.3
2020-Sep-25 05:39 166 6 gusting 12 17.8
2020-Sep-25 05:34 217 2 gusting 8 17.8
2020-Sep-25 05:14 045 17.8
2020-Sep-25 05:09 079 2 gusting 4 17.8
2020-Sep-25 05:04 071 0 gusting 6 17.8
2020-Sep-25 04:49 089 7 gusting 15 17.8
2020-Sep-25 04:44 079 5 gusting 10 17.8
2020-Sep-25 04:39 166 5 gusting 11 17.8
2020-Sep-25 04:34 036 2 gusting 11 17.8
2020-Sep-25 04:19 065 7 gusting 12 17.8
2020-Sep-25 04:14 071 5 gusting 8 17.8
2020-Sep-25 04:09 170 1 gusting 6 17.8
2020-Sep-25 03:44 135 7 gusting 14 17.8
2020-Sep-25 03:34 087 4 gusting 11 17.8
2020-Sep-25 03:19 080 4 gusting 10 17.8
2020-Sep-25 03:14 194 4 gusting 10 17.8
2020-Sep-25 02:34 323 1 gusting 6 17.8
2020-Sep-25 02:19 163 1 gusting 2 17.8
2020-Sep-25 02:14 030 0 gusting 10 17.8
2020-Sep-25 02:09 023 2 gusting 5 17.8
2020-Sep-25 02:04 041 3 gusting 6 17.2
2020-Sep-25 01:49 113 1 gusting 4 17.8
2020-Sep-25 01:34 081 2 gusting 7 17.8
2020-Sep-25 01:19 094 2 gusting 6 17.8
2020-Sep-25 01:14 115 2 gusting 5 17.8
2020-Sep-25 00:34 090 1 gusting 4 17.2
2020-Sep-25 00:19 230 0 gusting 2 17.2
2020-Sep-25 00:14 230 0 gusting 0 17.2
2020-Sep-25 00:04 232 1 gusting 2 17.2
2020-Sep-24 23:44 325 2 gusting 2 17.8
2020-Sep-24 23:34 098 0 gusting 7 17.8
2020-Sep-24 23:19 193 1 gusting 2 17.8
2020-Sep-24 23:09 070 17.8
2020-Sep-24 22:44 042 5 gusting 7 17.8
2020-Sep-24 22:39 028 2 gusting 5 17.8
2020-Sep-24 22:34 165 0 gusting 2 17.8
2020-Sep-24 22:14 020 18.3
2020-Sep-24 22:09 020 0 gusting 2 18.3
2020-Sep-24 21:49 012 4 gusting 5 18.3
2020-Sep-24 21:44 073 1 gusting 2 18.3
2020-Sep-24 21:39 073 0 gusting 2 18.3
2020-Sep-24 21:34 323 1 gusting 10 18.3
2020-Sep-24 21:14 048 4 gusting 6 18.3
2020-Sep-24 21:09 089 2 gusting 4 18.3
2020-Sep-24 20:49 220 1 gusting 2 18.3
2020-Sep-24 20:19 062 2 gusting 4 18.3
2020-Sep-24 20:14 051 2 gusting 4 18.3
2020-Sep-24 20:09 097 1 gusting 2 18.3
2020-Sep-24 20:04 226 18.3
2020-Sep-24 19:49 003 1 gusting 5 18.3
2020-Sep-24 19:44 021 5 gusting 6 18.3
2020-Sep-24 19:39 038 1 gusting 4 18.3
2020-Sep-24 19:34 026 4 gusting 6 18.3
2020-Sep-24 19:19 016 18.3
2020-Sep-24 19:14 333 18.3
2020-Sep-24 19:09 333 0 gusting 2 18.3
2020-Sep-24 18:49 062 1 gusting 1 18.3
2020-Sep-24 18:44 063 18.3
2020-Sep-24 18:39 062 0 gusting 1 18.3
2020-Sep-24 18:19 028 3 gusting 5 18.9
2020-Sep-24 18:14 035 2 gusting 6 18.9
2020-Sep-24 18:09 023 4 gusting 6 18.9
2020-Sep-24 18:04 027 2 gusting 4 18.9
2020-Sep-24 17:49 021 1 gusting 4 18.9
2020-Sep-24 17:44 023 18.9
2020-Sep-24 17:39 024 2 gusting 4 18.9
2020-Sep-24 17:34 047 2 gusting 6 18.9
2020-Sep-24 17:19 023 2 gusting 6 19.4
2020-Sep-24 17:14 002 2 gusting 4 19.4
2020-Sep-24 17:09 022 2 gusting 4 19.4
2020-Sep-24 17:04 029 1 gusting 2 19.4
2020-Sep-24 16:49 133 0 gusting 1 20.0
2020-Sep-24 16:34 133 0 gusting 1 20.6
2020-Sep-24 16:19 152 1 gusting 2 21.1
2020-Sep-24 16:14 190 2 gusting 2 21.1
2020-Sep-24 16:09 203 1 gusting 2 21.1
2020-Sep-24 16:04 037 21.7
2020-Sep-24 15:49 085 0 gusting 2 21.7
2020-Sep-24 15:44 072 0 gusting 4 21.7
2020-Sep-24 15:39 063 2 gusting 5 22.2
2020-Sep-24 15:34 251 22.2
2020-Sep-24 15:19 058 1 gusting 5 21.7
2020-Sep-24 15:14 161 1 gusting 4 21.7
2020-Sep-24 14:44 065 0 gusting 2 21.7
2020-Sep-24 14:39 072 0 gusting 1 21.7
2020-Sep-24 14:34 064 1 gusting 5 21.1
2020-Sep-24 14:19 027 2 gusting 4 20.6
2020-Sep-24 14:14 031 1 gusting 2 20.6
2020-Sep-24 14:04 034 1 gusting 6 20.0
2020-Sep-24 13:49 037 1 gusting 5 20.0
2020-Sep-24 13:44 039 5 gusting 7 19.4
2020-Sep-24 13:39 046 4 gusting 6 19.4
2020-Sep-24 13:19 146 0 gusting 1 20.0
2020-Sep-24 13:04 193 0 gusting 1 20.6
2020-Sep-24 12:49 197 20.6
2020-Sep-24 12:34 197 0 gusting 2 20.6
2020-Sep-24 12:14 233 20.6
2020-Sep-24 12:09 233 0 gusting 1 20.6
2020-Sep-24 12:04 242 0 gusting 2 20.6
2020-Sep-24 11:49 240 21.1
2020-Sep-24 11:44 240 21.1
2020-Sep-24 11:39 240 20.6
2020-Sep-24 11:14 228 1 gusting 2 20.6
2020-Sep-24 11:04 146 20.6
2020-Sep-24 10:49 259 19.4
2020-Sep-24 10:44 259 0 gusting 1 19.4
2020-Sep-24 10:34 229 0 gusting 2 19.4
2020-Sep-24 10:14 211 0 gusting 2 19.4
2020-Sep-24 10:09 193 0 gusting 1 19.4
2020-Sep-24 09:49 226 19.4
2020-Sep-24 09:44 226 19.4
2020-Sep-24 09:39 226 19.4
2020-Sep-24 09:34 226 19.4
2020-Sep-24 09:19 226 18.9
2020-Sep-24 09:14 226 18.3
2020-Sep-24 09:09 212 18.3
2020-Sep-24 09:04 212 18.3
2020-Sep-24 08:49 212 18.3
2020-Sep-24 08:44 212 18.3
2020-Sep-24 08:34 212 18.3
2020-Sep-24 08:19 214 18.3
2020-Sep-24 08:14 214 0 gusting 2 18.3
2020-Sep-24 08:09 232 1 gusting 2 18.3
2020-Sep-24 08:04 234 1 gusting 2 18.3
2020-Sep-24 07:49 240 1 gusting 2 18.3
2020-Sep-24 07:44 252 18.3
2020-Sep-24 07:39 252 17.8
2020-Sep-24 07:34 250 17.8
2020-Sep-24 07:14 311 17.8
2020-Sep-24 07:09 322 17.8
2020-Sep-24 06:34 041 17.2
2020-Sep-24 06:14 040 16.7
2020-Sep-24 06:09 044 16.7
2020-Sep-24 06:04 044 16.7
2020-Sep-24 05:49 041 0 gusting 0 16.7
2020-Sep-24 05:44 041 16.7
2020-Sep-24 05:19 048 16.1
2020-Sep-24 05:14 049 16.1
2020-Sep-24 05:09 049 16.1
2020-Sep-24 05:04 049 16.1
2020-Sep-24 04:49 316 16.1
2020-Sep-24 04:44 316 16.1
2020-Sep-24 04:39 316 16.1
2020-Sep-24 04:34 316 16.7
2020-Sep-24 04:19 067 1 gusting 2 16.7
2020-Sep-24 04:09 046 0 gusting 1 16.7
2020-Sep-24 04:04 046 16.7
2020-Sep-24 03:49 070 0 gusting 1 16.7
2020-Sep-24 03:44 032 16.7
2020-Sep-24 03:39 032 0 gusting 0 16.7
2020-Sep-24 03:34 032 16.7
2020-Sep-24 03:09 032 16.7
2020-Sep-24 03:04 032 16.7
2020-Sep-24 02:49 032 16.7
2020-Sep-24 02:44 032 16.7
2020-Sep-24 02:39 032 0 gusting 0 16.7
2020-Sep-24 02:19 024 16.7
2020-Sep-24 02:14 026 16.1
2020-Sep-24 02:09 026 16.1
2020-Sep-24 02:04 026 16.7
2020-Sep-24 01:49 027 0 gusting 2 16.7
2020-Sep-24 01:44 027 16.7
2020-Sep-24 01:39 027 1 gusting 2 16.7
2020-Sep-24 01:34 032 1 gusting 2 16.7
2020-Sep-24 01:19 060 16.1
2020-Sep-24 01:14 060 16.1
2020-Sep-24 01:04 060 16.1
2020-Sep-24 00:49 059 0 gusting 2 16.1
2020-Sep-24 00:19 064 16.1
2020-Sep-24 00:09 033 0 gusting 2 16.1
2020-Sep-23 23:44 145 16.7
2020-Sep-23 23:39 146 16.7
2020-Sep-23 23:34 263 16.7
2020-Sep-23 23:19 263 0 gusting 2 16.7
2020-Sep-23 23:14 168 2 gusting 2 16.7
2020-Sep-23 23:09 130 2 gusting 5 17.2
2020-Sep-23 23:04 215 17.2
2020-Sep-23 22:44 045 1 gusting 2 17.2
2020-Sep-23 22:39 039 0 gusting 2 17.2
2020-Sep-23 22:34 023 0 gusting 1 17.2
2020-Sep-23 22:19 023 17.2
2020-Sep-23 22:14 023 17.2
2020-Sep-23 22:09 023 17.2
2020-Sep-23 22:04 023 17.2
2020-Sep-23 21:44 023 0 gusting 1 17.2
2020-Sep-23 21:34 050 2 gusting 2 17.2
2020-Sep-23 21:19 037 17.2
2020-Sep-23 21:14 037 17.2
2020-Sep-23 21:09 037 17.2
2020-Sep-23 20:44 037 17.2
2020-Sep-23 20:39 037 17.2
2020-Sep-23 20:14 037 17.2
2020-Sep-23 19:49 323 17.2
2020-Sep-23 19:44 323 17.2
2020-Sep-23 19:39 323 17.2
2020-Sep-23 19:34 323 17.2
2020-Sep-23 19:09 101 17.8
2020-Sep-23 19:04 101 17.2
2020-Sep-23 18:49 101 17.8
2020-Sep-23 18:44 101 17.8
2020-Sep-23 18:39 101 17.8
2020-Sep-23 18:34 101 17.8
2020-Sep-23 18:19 101 17.8
2020-Sep-23 18:14 101 17.8
2020-Sep-23 18:09 181 1 gusting 2 17.8
2020-Sep-23 18:04 129 1 gusting 2 17.8
2020-Sep-23 17:49 149 0 gusting 2 17.8
2020-Sep-23 17:39 123 2 gusting 5 17.8
2020-Sep-23 17:34 117 2 gusting 4 17.8
2020-Sep-23 17:19 166 2 gusting 4 17.8
2020-Sep-23 17:14 192 2 gusting 4 17.8
2020-Sep-23 17:09 107 3 gusting 6 17.8
2020-Sep-23 17:04 116 2 gusting 5 18.3
2020-Sep-23 16:49 175 0 gusting 2 18.3
2020-Sep-23 16:44 127 0 gusting 1 18.3
2020-Sep-23 16:39 178 0 gusting 1 18.3
2020-Sep-23 16:34 141 0 gusting 4 18.3
2020-Sep-23 16:19 142 1 gusting 4 18.3
2020-Sep-23 16:09 220 1 gusting 10 18.3
2020-Sep-23 16:04 154 2 gusting 8 18.9
2020-Sep-23 15:49 150 1 gusting 4 18.9
2020-Sep-23 15:44 174 2 gusting 5 18.9
2020-Sep-23 15:39 222 1 gusting 4 18.9
2020-Sep-23 15:19 165 1 gusting 4 18.9
2020-Sep-23 15:14 121 1 gusting 5 18.9
2020-Sep-23 15:09 207 18.9
2020-Sep-23 14:49 165 4 gusting 7 18.9
2020-Sep-23 14:44 168 1 gusting 5 18.9
2020-Sep-23 14:39 177 2 gusting 5 18.9
2020-Sep-23 14:34 186 2 gusting 5 19.4
2020-Sep-23 14:04 218 0 gusting 2 18.9